Latest Coastal Weather Observations for Hopetoun North

IDW60701

Issued at 4:32 am WST Saturday 2 July 2016 (issued every 10 minutes, with the page automatically refreshed every 10 minutes)

About coastal observations | Map of coastal stations | Coastal observations for WA | Marine services | Other Formats
Station Details ID: 009961 Name: HOPETOUN NORTH Lat: -33.93 Lon: 120.13 Height: 26.0 m
Data from the previous 72 hours. | See also: Recent months at Hopetoun North
Date/Time
WST
Temp
°C
Wind Pressure Rain since
9am
mm
Weather Cloud Vis
km
Sea
Height
m
Swell
Dir  Spd
kts
Gust
kts
hPa Trend Height
m
Period
s
Dir
02/04:30am - NNE 4 5 1025.7 - 0.0 - - - - - - -
02/04:00am - NE 4 6 1025.8 - 0.0 - - - - - - -
02/03:30am - N 3 6 1026.0 - 0.0 - - - - - - -
02/03:00am - N 4 5 1026.0 - 0.0 - - - - - - -
02/02:30am - N 4 5 1026.1 - 0.0 - - - - - - -
02/02:00am - NNE 4 4 1026.0 - 0.0 - - - - - - -
02/01:30am - NNE 4 4 1025.9 - 0.0 - - - - - - -
02/01:00am - NNE 3 3 1026.1 - 0.0 - - - - - - -
02/12:30am - NNE 3 4 1026.3 - 0.0 - - - - - - -
02/12:00am - NNE 3 4 1026.6 - 0.0 - - - - - - -
 
Date/Time
WST
Temp
°C
Wind Pressure Rain since
9am
mm
Weather Cloud Vis
km
Sea
Height
m
Swell
Dir  Spd
kts
Gust
kts
hPa Trend Height
m
Period
s
Dir
01/11:30pm - NNE 5 6 1026.8 - 0.0 - - - - - - -
01/11:00pm - NE 6 6 1027.0 - 0.0 - - - - - - -
01/10:30pm - NE 6 6 1027.2 - 0.0 - - - - - - -
01/10:00pm - NE 4 6 1027.2 - 0.0 - - - - - - -
01/09:30pm - NE 6 7 1027.1 - 0.0 - - - - - - -
01/09:00pm - ENE 6 7 1026.9 - 0.0 - - - - - - -
01/08:30pm - NNE 3 4 1026.8 - 0.0 - - - - - - -
01/08:00pm - N 3 3 1026.9 - 0.0 - - - - - - -
01/07:30pm - N 4 5 1026.7 - 0.0 - - - - - - -
01/07:00pm - NNE 3 4 1026.5 - 0.0 - - - - - - -
01/06:30pm - NNW 3 5 1026.4 - 0.0 - - - - - - -
01/06:00pm - NW 4 5 1026.2 - 0.0 - - - - - - -
01/05:30pm - NNW 3 4 1025.9 - 0.0 - - - - - - -
01/05:00pm - NW 2 3 1025.7 - 0.0 - - - - - - -
01/04:30pm - NW 2 3 1025.7 - 0.0 - - - - - - -
01/04:00pm - NW 4 6 1025.8 - 0.0 - - - - - - -
01/03:30pm - NNW 5 7 1025.7 - 0.0 - - - - - - -
01/03:00pm - NW 4 8 1025.6 - 0.0 - - - - - - -
01/02:30pm - NW 5 8 1025.6 - 0.0 - - - - - - -
01/02:00pm - WNW 6 10 1025.7 - 0.0 - - - - - - -
01/01:30pm - WNW 5 9 1025.8 - 0.0 - - - - - - -
01/01:00pm - NNW 5 9 1026.1 - 0.0 - - - - - - -
01/12:30pm - NW 6 10 1026.5 - 0.0 - - - - - - -
01/12:00pm - WNW 6 9 1026.9 - 0.0 - - - - - - -
01/11:30am - WNW 6 9 1027.5 - 0.0 - - - - - - -
01/11:00am - WNW 7 10 1027.9 - 0.0 - - - - - - -
01/10:30am - WNW 6 10 1028.2 - 0.0 - - - - - - -
01/10:00am - NW 5 9 1028.4 - 0.0 - - - - - - -
01/09:30am - NNW 4 6 1028.3 - 0.0 - - - - - - -
01/09:00am - NNW 4 5 1028.1 - 0.0 - - - - - - -
01/08:30am - N 4 6 1027.8 - 0.0 - - - - - - -
01/08:00am - N 4 5 1027.7 - 0.0 - - - - - - -
01/07:30am - N 5 7 1027.5 - 0.0 - - - - - - -
01/07:00am - N 5 7 1027.2 - 0.0 - - - - - - -
01/06:30am - N 4 6 1026.9 - 0.0 - - - - - - -
01/06:00am - NNW 5 6 1026.7 - 0.0 - - - - - - -
01/05:30am - N 4 5 1026.5 - 0.0 - - - - - - -
01/05:00am - N 3 4 1026.2 - 0.0 - - - - - - -
01/04:30am - NNW 4 5 1026.2 - 0.0 - - - - - - -
01/04:00am - NNE 3 4 1026.0 - 0.0 - - - - - - -
01/03:30am - NNE 4 5 1026.0 - 0.0 - - - - - - -
01/03:00am - SSW 1 4 1026.1 - 0.0 - - - - - - -
01/02:30am - N 5 6 1025.9 - 0.0 - - - - - - -
01/02:00am - N 4 6 1026.1 - 0.0 - - - - - - -
01/01:30am - N 4 5 1026.0 - 0.0 - - - - - - -
01/01:00am - N 5 7 1026.2 - 0.0 - - - - - - -
01/12:30am - N 4 6 1026.1 - 0.0 - - - - - - -
01/12:00am - N 4 5 1026.1 - 0.0 - - - - - - -
 
Date/Time
WST
Temp
°C
Wind Pressure Rain since
9am
mm
Weather Cloud Vis
km
Sea
Height
m
Swell
Dir  Spd
kts
Gust
kts
hPa Trend Height
m
Period
s
Dir
30/11:30pm - N 4 5 1026.2 - 0.0 - - - - - - -
30/11:00pm - NNE 4 5 1026.5 - 0.0 - - - - - - -
30/10:30pm - N 5 6 1026.5 - 0.0 - - - - - - -
30/10:00pm - N 3 4 1026.6 - 0.0 - - - - - - -
30/09:30pm - NNW 4 5 1026.5 - 0.0 - - - - - - -
30/09:00pm - NW 5 7 1026.4 - 0.0 - - - - - - -
30/08:30pm - NNW 3 4 1026.2 - 0.0 - - - - - - -
30/08:00pm - NNW 3 3 1025.9 - 0.0 - - - - - - -
30/07:30pm - NNW 4 4 1025.7 - 0.0 - - - - - - -
30/07:00pm - N 1 4 1025.3 - 0.0 - - - - - - -
30/06:30pm - CALM 0 0 1025.0 - 0.0 - - - - - - -
30/06:00pm - CALM 0 0 1024.6 - 0.0 - - - - - - -
30/05:30pm - CALM 0 0 1024.2 - 0.0 - - - - - - -
30/05:00pm - CALM 0 2 1023.9 - 0.0 - - - - - - -
30/04:30pm - CALM 0 0 1023.6 - 0.0 - - - - - - -
30/04:00pm - SSW 5 7 1023.4 - 0.0 - - - - - - -
30/03:30pm - SSW 7 9 1023.2 - 0.0 - - - - - - -
30/03:00pm - SSW 6 9 1023.0 - 0.0 - - - - - - -
30/02:30pm - SSW 8 11 1022.9 - 0.0 - - - - - - -
30/02:00pm - SW 9 11 1023.0 - 0.0 - - - - - - -
30/01:30pm - SSW 8 11 1023.2 - 0.0 - - - - - - -
30/01:00pm - SW 9 12 1023.4 - 0.0 - - - - - - -
30/12:30pm - SW 9 12 1023.6 - 0.0 - - - - - - -
30/12:00pm - WSW 8 11 1024.0 - 0.0 - - - - - - -
30/11:30am - W 8 11 1024.4 - 0.0 - - - - - - -
30/11:00am - W 9 14 1024.7 - 0.0 - - - - - - -
30/10:30am - W 9 15 1025.0 - 0.0 - - - - - - -
30/10:00am - W 9 13 1025.2 - 0.0 - - - - - - -
30/09:30am - W 7 11 1025.0 - 0.0 - - - - - - -
30/09:00am - WNW 6 9 1024.9 - 0.0 - - - - - - -
30/08:30am - WNW 6 9 1024.8 - 0.0 - - - - - - -
30/08:00am - WNW 7 10 1024.6 - 0.0 - - - - - - -
30/07:30am - NW 5 8 1024.2 - 0.0 - - - - - - -
30/07:00am - WNW 5 8 1023.8 - 0.0 - - - - - - -
30/06:30am - WNW 7 11 1023.5 - 0.0 - - - - - - -
30/06:00am - WNW 7 10 1023.2 - 0.0 - - - - - - -
30/05:30am - WNW 7 11 1023.1 - 0.0 - - - - - - -
30/05:00am - WNW 6 10 1022.8 - 0.0 - - - - - - -
30/04:30am - WNW 6 9 1022.7 - 0.0 - - - - - - -
30/04:00am - WNW 6 9 1022.7 - 0.0 - - - - - - -
30/03:30am - WNW 7 10 1022.4 - 0.0 - - - - - - -
30/03:00am - WNW 6 9 1022.5 - 0.0 - - - - - - -
30/02:30am - WNW 7 10 1022.4 - 0.0 - - - - - - -
30/02:00am - WNW 8 12 1022.3 - 0.0 - - - - - - -
30/01:30am - WNW 8 12 1022.3 - 0.0 - - - - - - -
30/01:00am - WNW 7 11 1022.1 - 0.0 - - - - - - -
30/12:30am - WNW 6 10 1022.0 - 0.0 - - - - - - -
30/12:00am - NW 6 10 1022.0 - 0.0 - - - - - - -
 
Date/Time
WST
Temp
°C
Wind Pressure Rain since
9am
mm
Weather Cloud Vis
km
Sea
Height
m
Swell
Dir  Spd
kts
Gust
kts
hPa Trend Height
m
Period
s
Dir
29/11:30pm - NW 5 8 1022.0 - 0.0 - - - - - - -
29/11:00pm - WNW 6 9 1021.6 - 0.0 - - - - - - -
29/10:30pm - W 7 10 1021.6 - 0.0 - - - - - - -
29/10:00pm - W 6 8 1021.4 - 0.0 - - - - - - -
29/09:30pm - W 7 11 1021.3 - 0.0 - - - - - - -
29/09:00pm - WNW 5 7 1021.2 - 0.0 - - - - - - -
29/08:30pm - W 10 15 1020.7 - 0.0 - - - - - - -
29/08:00pm - WSW 10 15 1020.4 - 0.0 - - - - - - -
29/07:30pm - WSW 13 19 1019.9 - 0.0 - - - - - - -
29/07:00pm - WSW 11 16 1019.5 - 0.0 - - - - - - -
29/06:30pm - SW 10 15 1019.1 - 0.0 - - - - - - -
29/06:00pm - WSW 10 15 1018.7 - 0.0 - - - - - - -
29/05:30pm - SW 11 14 1018.3 - 0.0 - - - - - - -
29/05:00pm - SW 11 15 1018.0 - 0.0 - - - - - - -
29/04:30pm - SW 12 17 1017.4 - 0.0 - - - - - - -
29/04:00pm - WSW 9 14 1016.8 - 0.0 - - - - - - -
29/03:30pm - SW 12 17 1016.4 - 0.0 - - - - - - -
29/03:00pm - SW 13 17 1016.0 - 0.0 - - - - - - -
29/02:30pm - WSW 10 14 1015.4 - 0.0 - - - - - - -
29/02:00pm - SW 11 16 1015.0 - 0.0 - - - - - - -
29/01:30pm - SW 10 14 1014.8 - 0.0 - - - - - - -
29/01:00pm - SW 9 14 1014.7 - 0.0 - - - - - - -
29/12:30pm - SW 11 13 1014.7 - 0.0 - - - - - - -
29/12:00pm - SW 10 15 1014.6 - 0.0 - - - - - - -
29/11:30am - WSW 10 13 1014.8 - 0.0 - - - - - - -
29/11:00am - W 9 13 1014.9 - 0.0 - - - - - - -
29/10:30am - WNW 8 13 1014.7 - 0.0 - - - - - - -
29/10:00am - W 7 11 1014.8 - 0.0 - - - - - - -
29/09:30am - W 9 13 1014.6 - 0.0 - - - - - - -
29/09:00am - W 8 15 1014.3 - 0.0 - - - - - - -
29/08:30am - WNW 8 14 1014.1 - 0.0 - - - - - - -
29/08:00am - WNW 9 14 1013.7 - 0.0 - - - - - - -
29/07:30am - WNW 8 12 1013.6 - 0.0 - - - - - - -
29/07:00am - NW 8 13 1013.4 - 0.0 - - - - - - -
29/06:30am - NW 7 11 1013.0 - 0.0 - - - - - - -
29/06:00am - NW 5 10 1012.5 - 0.0 - - - - - - -
29/05:30am - WNW 6 10 1012.0 - 0.0 - - - - - - -
29/05:00am - WSW 6 9 1011.8 - 0.0 - - - - - - -

Other Formats:

Comma delimited format used in spreadsheet applications
http://www.bom.gov.au/fwo/IDW60701/IDW60701.95635.axf

JavaScript Object Notation format (JSON) in row-major order
http://www.bom.gov.au/fwo/IDW60701/IDW60701.95635.json